地図

経路データ

SID SEASON NUMBER BASIN SUBBASIN NAME ISO_TIME NATURE LAT LON WMO_WIND WMO_PRES WMO_AGENCY TRACK_TYPE DIST2LAND LANDFALL IFLAG USA_AGENCY USA_ATCF_ID USA_LAT USA_LON USA_RECORD USA_STATUS USA_WIND USA_PRES USA_SSHS USA_R34_NE USA_R34_SE USA_R34_SW USA_R34_NW USA_R50_NE USA_R50_SE USA_R50_SW USA_R50_NW USA_R64_NE USA_R64_SE USA_R64_SW USA_R64_NW USA_POCI USA_ROCI USA_RMW USA_EYE TOKYO_LAT TOKYO_LON TOKYO_GRADE TOKYO_WIND TOKYO_PRES TOKYO_R50_DIR TOKYO_R50_LONG TOKYO_R50_SHORT TOKYO_R30_DIR TOKYO_R30_LONG TOKYO_R30_SHORT TOKYO_LAND CMA_LAT CMA_LON CMA_CAT CMA_WIND CMA_PRES HKO_LAT HKO_LON HKO_CAT HKO_WIND HKO_PRES NEWDELHI_LAT NEWDELHI_LON NEWDELHI_GRADE NEWDELHI_WIND NEWDELHI_PRES NEWDELHI_CI NEWDELHI_DP NEWDELHI_POCI REUNION_LAT REUNION_LON REUNION_TYPE REUNION_WIND REUNION_PRES REUNION_TNUM REUNION_CI REUNION_RMW REUNION_R34_NE REUNION_R34_SE REUNION_R34_SW REUNION_R34_NW REUNION_R50_NE REUNION_R50_SE REUNION_R50_SW REUNION_R50_NW REUNION_R64_NE REUNION_R64_SE REUNION_R64_SW REUNION_R64_NW BOM_LAT BOM_LON BOM_TYPE BOM_WIND BOM_PRES BOM_TNUM BOM_CI BOM_RMW BOM_R34_NE BOM_R34_SE BOM_R34_SW BOM_R34_NW BOM_R50_NE BOM_R50_SE BOM_R50_SW BOM_R50_NW BOM_R64_NE BOM_R64_SE BOM_R64_SW BOM_R64_NW BOM_ROCI BOM_POCI BOM_EYE BOM_POS_METHOD BOM_PRES_METHOD NADI_LAT NADI_LON NADI_CAT NADI_WIND NADI_PRES WELLINGTON_LAT WELLINGTON_LON WELLINGTON_WIND WELLINGTON_PRES DS824_LAT DS824_LON DS824_STAGE DS824_WIND DS824_PRES TD9636_LAT TD9636_LON TD9636_STAGE TD9636_WIND TD9636_PRES TD9635_LAT TD9635_LON TD9635_WIND TD9635_PRES TD9635_ROCI NEUMANN_LAT NEUMANN_LON NEUMANN_CLASS NEUMANN_WIND NEUMANN_PRES MLC_LAT MLC_LON MLC_CLASS MLC_WIND MLC_PRES USA_GUST BOM_GUST BOM_GUST_PER REUNION_GUST REUNION_GUST_PER USA_SEAHGT USA_SEARAD_NE USA_SEARAD_SE USA_SEARAD_SW USA_SEARAD_NW STORM_SPEED STORM_DIR
1991210N11253 1991 44 EP MM FEFA 1991-07-29 06:00:00 TS 10.8000 -107.200 25 1009 hurdat_epa main 929 923 O_____________ hurdat_epa EP071991 10.8000 -107.200 TD 25 1009 -1 15 299
1991210N11253 1991 44 EP MM FEFA 1991-07-29 09:00:00 TS 11.1628 -107.857 main 924 920 P_____________ EP071991 11.1628 -107.857 TD 27 1008 -1 15 299
1991210N11253 1991 44 EP MM FEFA 1991-07-29 12:00:00 TS 11.5000 -108.500 30 1008 hurdat_epa main 931 928 O_____________ hurdat_epa EP071991 11.5000 -108.500 TD 30 1008 -1 14 297
1991210N11253 1991 44 EP MM FEFA 1991-07-29 15:00:00 TS 11.7999 -109.115 main 943 942 P_____________ EP071991 11.7999 -109.115 TD 32 1006 -1 13 297
1991210N11253 1991 44 EP MM FEFA 1991-07-29 18:00:00 TS 12.1000 -109.700 35 1005 hurdat_epa main 952 948 O_____________ hurdat_epa EP071991 12.1000 -109.700 TS 35 1005 0 13 301
1991210N11253 1991 44 EP MM FEFA 1991-07-29 21:00:00 TS 12.4649 -110.265 main 952 950 P_____________ EP071991 12.4649 -110.265 TS 35 1004 0 13 303
1991210N11253 1991 44 EP MM FEFA 1991-07-30 00:00:00 TS 12.8000 -110.800 35 1004 hurdat_epa main 961 960 O_____________ hurdat_epa EP071991 12.8000 -110.800 TS 35 1004 0 12 300
1991210N11253 1991 44 EP MM FEFA 1991-07-30 03:00:00 TS 13.0373 -111.300 main 981 981 P_____________ EP071991 13.0373 -111.300 TS 37 1003 0 11 292
1991210N11253 1991 44 EP MM FEFA 1991-07-30 06:00:00 TS 13.2000 -111.800 40 1002 hurdat_epa main 1003 1003 O_____________ hurdat_epa EP071991 13.2000 -111.800 TS 40 1002 0 11 285
1991210N11253 1991 44 EP MM FEFA 1991-07-30 09:00:00 TS 13.3075 -112.358 main 1041 1041 P_____________ EP071991 13.3075 -112.358 TS 42 1001 0 11 281
1991210N11253 1991 44 EP MM FEFA 1991-07-30 12:00:00 TS 13.4000 -112.900 45 1000 hurdat_epa main 1073 1073 O_____________ hurdat_epa EP071991 13.4000 -112.900 TS 45 1000 0 10 284
1991210N11253 1991 44 EP MM FEFA 1991-07-30 15:00:00 TS 13.5423 -113.358 main 1107 1100 P_____________ EP071991 13.5423 -113.358 TS 47 998 0 9 289
1991210N11253 1991 44 EP MM FEFA 1991-07-30 18:00:00 TS 13.7000 -113.800 50 997 hurdat_epa main 1104 1101 O_____________ hurdat_epa EP071991 13.7000 -113.800 TS 50 997 0 9 288
1991210N11253 1991 44 EP MM FEFA 1991-07-30 21:00:00 TS 13.8274 -114.285 main 1114 1108 P_____________ EP071991 13.8274 -114.285 TS 52 995 0 10 287
1991210N11253 1991 44 EP MM FEFA 1991-07-31 00:00:00 TS 14.0000 -114.800 55 994 hurdat_epa main 1116 1111 O_____________ hurdat_epa EP071991 14.0000 -114.800 TS 55 994 0 11 294
1991210N11253 1991 44 EP MM FEFA 1991-07-31 03:00:00 TS 14.2925 -115.350 main 1112 1109 P_____________ EP071991 14.2925 -115.350 TS 57 992 0 12 299
1991210N11253 1991 44 EP MM FEFA 1991-07-31 06:00:00 TS 14.6000 -115.900 60 991 hurdat_epa main 1116 1113 O_____________ hurdat_epa EP071991 14.6000 -115.900 TS 60 991 0 11 298
1991210N11253 1991 44 EP MM FEFA 1991-07-31 09:00:00 TS 14.8223 -116.400 main 1128 1125 P_____________ EP071991 14.8223 -116.400 TS 62 989 0 10 292
1991210N11253 1991 44 EP MM FEFA 1991-07-31 12:00:00 TS 15.0000 -116.900 65 987 hurdat_epa main 1142 1142 O_____________ hurdat_epa EP071991 15.0000 -116.900 HU 65 987 1 11 289
1991210N11253 1991 44 EP MM FEFA 1991-07-31 15:00:00 TS 15.1649 -117.443 main 1159 1159 P_____________ EP071991 15.1649 -117.443 HU 67 985 1 11 286
1991210N11253 1991 44 EP MM FEFA 1991-07-31 18:00:00 TS 15.3000 -118.000 70 984 hurdat_epa main 1194 1194 O_____________ hurdat_epa EP071991 15.3000 -118.000 HU 70 984 1 11 282
1991210N11253 1991 44 EP MM FEFA 1991-07-31 21:00:00 TS 15.3999 -118.558 main 1232 1232 P_____________ EP071991 15.3999 -118.558 HU 72 983 1 11 281
1991210N11253 1991 44 EP MM FEFA 1991-08-01 00:00:00 TS 15.5000 -119.100 75 982 hurdat_epa main 1261 1261 O_____________ hurdat_epa EP071991 15.5000 -119.100 HU 75 982 1 10 283
1991210N11253 1991 44 EP MM FEFA 1991-08-01 03:00:00 TS 15.6424 -119.615 main 1283 1274 P_____________ EP071991 15.6424 -119.615 HU 77 979 1 10 287
1991210N11253 1991 44 EP MM FEFA 1991-08-01 06:00:00 TS 15.8000 -120.100 80 977 hurdat_epa main 1298 1298 O_____________ hurdat_epa EP071991 15.8000 -120.100 HU 80 977 1 10 289
1991210N11253 1991 44 EP MM FEFA 1991-08-01 09:00:00 TS 15.9574 -120.565 main 1315 1315 P_____________ EP071991 15.9574 -120.565 HU 82 974 1 9 289
1991210N11253 1991 44 EP MM FEFA 1991-08-01 12:00:00 TS 16.1000 -121.000 85 971 hurdat_epa main 1335 1335 O_____________ hurdat_epa EP071991 16.1000 -121.000 HU 85 971 2 8 287
1991210N11253 1991 44 EP MM FEFA 1991-08-01 15:00:00 TS 16.1998 -121.400 main 1356 1356 P_____________ EP071991 16.1998 -121.400 HU 90 967 2 8 285
1991210N11253 1991 44 EP MM FEFA 1991-08-01 18:00:00 TS 16.3000 -121.800 95 963 hurdat_epa main 1378 1378 O_____________ hurdat_epa EP071991 16.3000 -121.800 HU 95 963 2 8 287
1991210N11253 1991 44 EP MM FEFA 1991-08-01 21:00:00 TS 16.4425 -122.243 main 1400 1400 P_____________ EP071991 16.4425 -122.243 HU 100 961 3 9 289
1991210N11253 1991 44 EP MM FEFA 1991-08-02 00:00:00 TS 16.6000 -122.700 105 959 hurdat_epa main 1424 1424 O_____________ hurdat_epa EP071991 16.6000 -122.700 HU 105 959 3 9 290
1991210N11253 1991 44 EP MM FEFA 1991-08-02 03:00:00 TS 16.7574 -123.143 main 1442 1442 P_____________ EP071991 16.7574 -123.143 HU 105 959 3 9 289
1991210N11253 1991 44 EP MM FEFA 1991-08-02 06:00:00 TS 16.9000 -123.600 105 960 hurdat_epa main 1476 1476 O_____________ hurdat_epa EP071991 16.9000 -123.600 HU 105 960 3 9 285
1991210N11253 1991 44 EP MM FEFA 1991-08-02 09:00:00 TS 17.0074 -124.085 main 1511 1511 P_____________ EP071991 17.0074 -124.085 HU 102 961 3 10 282
1991210N11253 1991 44 EP MM FEFA 1991-08-02 12:00:00 TS 17.1000 -124.600 100 962 hurdat_epa main 1540 1540 O_____________ hurdat_epa EP071991 17.1000 -124.600 HU 100 962 3 10 281
1991210N11253 1991 44 EP MM FEFA 1991-08-02 15:00:00 TS 17.2074 -125.142 main 1565 1565 P_____________ EP071991 17.2074 -125.142 HU 97 964 3 11 281
1991210N11253 1991 44 EP MM FEFA 1991-08-02 18:00:00 TS 17.3000 -125.700 95 967 hurdat_epa main 1597 1597 O_____________ hurdat_epa EP071991 17.3000 -125.700 HU 95 967 2 11 278
1991210N11253 1991 44 EP MM FEFA 1991-08-02 21:00:00 TS 17.3573 -126.243 main 1625 1625 P_____________ EP071991 17.3573 -126.243 HU 92 969 2 11 275
1991210N11253 1991 44 EP MM FEFA 1991-08-03 00:00:00 TS 17.4000 -126.800 90 972 hurdat_epa main 1669 1669 O_____________ hurdat_epa EP071991 17.4000 -126.800 HU 90 972 2 11 275
1991210N11253 1991 44 EP MM FEFA 1991-08-03 03:00:00 TS 17.4497 -127.378 main 1714 1706 P_____________ EP071991 17.4497 -127.378 HU 85 974 2 12 275
1991210N11253 1991 44 EP MM FEFA 1991-08-03 06:00:00 TS 17.5000 -128.000 80 977 hurdat_epa main 1752 1752 O_____________ hurdat_epa EP071991 17.5000 -128.000 HU 80 977 1 12 275
1991210N11253 1991 44 EP MM FEFA 1991-08-03 09:00:00 TS 17.5498 -128.678 main 1807 1800 P_____________ EP071991 17.5498 -128.678 HU 77 978 1 13 274
1991210N11253 1991 44 EP MM FEFA 1991-08-03 12:00:00 TS 17.6000 -129.400 75 979 hurdat_epa main 1856 1856 O_____________ hurdat_epa EP071991 17.6000 -129.400 HU 75 979 1 14 274
1991210N11253 1991 44 EP MM FEFA 1991-08-03 15:00:00 TS 17.6497 -130.135 main 1913 1913 P_____________ EP071991 17.6497 -130.135 HU 77 978 1 14 274
1991210N11253 1991 44 EP MM FEFA 1991-08-03 18:00:00 TS 17.7000 -130.900 80 978 hurdat_epa main 1973 1973 O_____________ hurdat_epa EP071991 17.7000 -130.900 HU 80 978 1 15 274
1991210N11253 1991 44 EP MM FEFA 1991-08-03 21:00:00 TS 17.7499 -131.700 main 2041 2034 P_____________ EP071991 17.7499 -131.700 HU 82 976 1 15 274
1991210N11253 1991 44 EP MM FEFA 1991-08-04 00:00:00 TS 17.8000 -132.500 85 975 hurdat_epa main 2103 2103 O_____________ hurdat_epa EP071991 17.8000 -132.500 HU 85 975 2 15 274
1991210N11253 1991 44 EP MM FEFA 1991-08-04 03:00:00 TS 17.8496 -133.258 main 2173 2167 P_____________ EP071991 17.8496 -133.258 HU 85 973 2 14 274
1991210N11253 1991 44 EP MM FEFA 1991-08-04 06:00:00 TS 17.9000 -134.000 85 972 hurdat_epa main 2196 2121 O_____________ hurdat_epa EP071991 17.9000 -134.000 HU 85 972 2 14 274
1991210N11253 1991 44 EP MM FEFA 1991-08-04 09:00:00 TS 17.9571 -134.742 main 2121 2038 P_____________ EP071991 17.9571 -134.742 HU 87 971 2 14 274
1991210N11253 1991 44 EP MM FEFA 1991-08-04 12:00:00 TS 18.0000 -135.500 90 970 hurdat_epa main 2038 1954 O_____________ hurdat_epa EP071991 18.0000 -135.500 HU 90 970 2 15 272
1991210N11253 1991 44 EP MM FEFA 1991-08-04 15:00:00 TS 17.9999 -136.300 main 1954 1870 P_____________ EP071991 17.9999 -136.300 HU 90 970 2 15 270
1991210N11253 1991 44 EP MM FEFA 1991-08-04 18:00:00 TS 18.0000 -137.100 90 970 hurdat_epa main 1870 1797 O_____________ hurdat_epa EP071991 18.0000 -137.100 HU 90 970 2 15 272
1991210N11253 1991 44 EP MM FEFA 1991-08-04 21:00:00 TS 18.0494 -137.842 main 1797 1711 P_____________ EP071991 18.0494 -137.842 HU 90 970 2 14 274
1991210N11253 1991 44 EP MM FEFA 1991-08-05 00:00:00 TS 18.1000 -138.600 90 970 hurdat_epa main 1711 1628 O_____________ hurdat_epa EP071991 18.1000 -138.600 HU 90 970 2 15 272
1991210N11253 1991 44 EP MM FEFA 1991-08-05 03:00:00 TS 18.1073 -139.435 main 1628 1533 P_____________ EP071991 18.1073 -139.435 HU 87 971 2 16 270
1991210N11253 1991 44 EP CP FEFA 1991-08-05 06:00:00 TS 18.1000 -140.300 85 972 hurdat_epa main 1533 1450 O_____________ hurdat_epa EP071991 18.1000 -140.300 HU 85 972 2 17 269
1991210N11253 1991 44 EP CP FEFA 1991-08-05 09:00:00 TS 18.0924 -141.188 main 1439 1356 P_____________ EP071991 18.0926 -141.188 HU 82 973 1 16 270
1991210N11253 1991 44 EP CP FEFA 1991-08-05 12:00:00 TS 18.1000 -142.000 80 975 hurdat_epa main 1356 1293 O_____________ hurdat_epa EP071991 18.1000 -142.000 HU 80 975 1 14 272
1991210N11253 1991 44 EP CP FEFA 1991-08-05 15:00:00 TS 18.1418 -142.637 main 1293 1229 P_____________ EP071991 18.1418 -142.622 HU 75 976 1 12 275
1991210N11253 1991 44 EP CP FEFA 1991-08-05 18:00:00 TS 18.2000 -143.225 70 977 hurdat_epa main 1229 1154 O_____________ hurdat_epa EP071991 18.2000 -143.200 HU 70 977 1 12 275
1991210N11253 1991 44 EP CP FEFA 1991-08-05 21:00:00 TS 18.2556 -143.909 main 1154 1081 P_____________ EP071991 18.2575 -143.892 HU 67 978 1 13 274
1991210N11253 1991 44 EP CP FEFA 1991-08-06 00:00:00 TS 18.3000 -144.600 65 980 hurdat_epa main 1081 1018 O_____________ hurdat_epa EP071991 18.3000 -144.600 HU 65 980 1 13 273
1991210N11253 1991 44 EP CP FEFA 1991-08-06 03:00:00 TS 18.3198 -145.256 main 1008 956 P_____________ EP071991 18.3073 -145.273 HU 62 984 0 12 271
1991210N11253 1991 44 EP CP FEFA 1991-08-06 06:00:00 TS 18.3250 -145.875 60 988 hurdat_epa main 945 893 O_____________ hurdat_epa EP071991 18.3000 -145.900 TS 60 988 0 11 270
1991210N11253 1991 44 EP CP FEFA 1991-08-06 09:00:00 TS 18.3281 -146.413 main 893 831 P_____________ EP071991 18.2992 -146.420 TS 57 991 0 11 270
1991210N11253 1991 44 EP CP FEFA 1991-08-06 12:00:00 TS 18.3250 -147.000 55 995 hurdat_epa main 831 758 O_____________ hurdat_epa EP071991 18.3000 -147.000 TS 55 995 0 13 269
1991210N11253 1991 44 EP CP FEFA 1991-08-06 15:00:00 TS 18.3147 -147.789 main 748 665 P_____________ EP071991 18.3006 -147.843 TS 52 997 0 15 269
1991210N11253 1991 44 EP CP FEFA 1991-08-06 18:00:00 TS 18.3000 -148.600 50 1000 hurdat_epa main 665 604 O_____________ hurdat_epa EP071991 18.3000 -148.700 TS 50 1000 0 14 268
1991210N11253 1991 44 EP CP FEFA 1991-08-06 21:00:00 TS 18.2775 -149.245 main 604 542 P_____________ EP071991 18.2917 -149.315 TS 47 1000 0 12 269
1991210N11253 1991 44 EP CP FEFA 1991-08-07 00:00:00 TS 18.2750 -149.875 45 1001 hurdat_epa main 532 461 O_____________ hurdat_epa EP071991 18.3000 -149.900 TS 45 1001 0 13 272
1991210N11253 1991 44 EP CP FEFA 1991-08-07 03:00:00 TS 18.3136 -150.601 main 461 388 P_____________ EP071991 18.3424 -150.620 TS 42 1001 0 14 274
1991210N11253 1991 44 EP CP FEFA 1991-08-07 06:00:00 TS 18.3750 -151.375 40 1002 hurdat_epa main 378 299 O_____________ hurdat_epa EP071991 18.4000 -151.400 TS 40 1002 0 15 274
1991210N11253 1991 44 EP CP FEFA 1991-08-07 09:00:00 TS 18.4265 -152.209 main 299 228 P_____________ EP071991 18.4352 -152.230 TS 37 1003 0 15 275
1991210N11253 1991 44 EP CP FEFA 1991-08-07 12:00:00 TS 18.5000 -152.975 35 1004 hurdat_epa main 219 169 O_____________ hurdat_epa EP071991 18.5000 -153.000 TS 35 1004 0 13 278
1991210N11253 1991 44 EP CP FEFA 1991-08-07 15:00:00 TS 18.6039 -153.554 main 161 122 P_____________ EP071991 18.6196 -153.603 TS 32 1005 -1 10 284
1991210N11253 1991 44 EP CP FEFA 1991-08-07 18:00:00 TS 18.7500 -154.025 30 1006 hurdat_epa main 114 76 O_____________ hurdat_epa EP071991 18.8000 -154.100 TD 30 1006 -1 9 291
1991210N11253 1991 44 EP CP FEFA 1991-08-07 21:00:00 TS 18.9384 -154.466 main 69 24 P_____________ EP071991 19.0353 -154.557 TD 27 1007 -1 9 296
1991210N11253 1991 44 EP CP FEFA 1991-08-08 00:00:00 TS 19.1500 -154.900 25 1008 hurdat_epa main 15 O_____________ hurdat_epa EP071991 19.3000 -155.000 TD 25 1008 -1 9 297

IBTrACS Databaseについて

本データベースは、米国NOAAが公開する1842年以降の世界の熱帯低気圧のベストトラックデータアーカイブInternational Best Track Archive for Climate Stewardship (IBTrACS)を、ウェブで閲覧しやすい形式に変換したものです。

最終更新日:2021-12-01